createdAt,value
2018-08-12T00:02:19.277Z,55.45
2018-08-12T00:04:50.846Z,55.46
2018-08-12T00:07:19.027Z,55.41
2018-08-12T00:09:47.224Z,55.37
2018-08-12T00:12:15.418Z,55.43
2018-08-12T00:14:43.694Z,55.38
2018-08-12T00:17:11.874Z,55.62
2018-08-12T00:19:40.094Z,55.24
2018-08-12T00:22:08.338Z,55.08
2018-08-12T00:24:36.582Z,55.11
2018-08-12T00:27:04.848Z,55.42
2018-08-12T00:29:33.125Z,55.36
2018-08-12T00:32:01.678Z,55.43
2018-08-12T00:34:29.873Z,55.48
2018-08-12T00:36:58.110Z,55.45
2018-08-12T00:39:26.310Z,55.42
2018-08-12T00:41:54.518Z,54.97
2018-08-12T00:44:22.753Z,54.88
2018-08-12T00:46:50.950Z,54.43
2018-08-12T00:49:19.171Z,54.23
2018-08-12T00:51:47.378Z,54.00
2018-08-12T00:54:15.634Z,53.79
2018-08-12T00:56:43.862Z,53.72
2018-08-12T00:59:12.082Z,53.93
2018-08-12T01:01:40.282Z,53.93
2018-08-12T01:04:08.473Z,54.06
2018-08-12T01:06:36.690Z,53.29
2018-08-12T01:09:08.669Z,53.18
2018-08-12T01:11:36.888Z,53.50
2018-08-12T01:14:05.146Z,53.33
2018-08-12T01:16:33.736Z,53.71
2018-08-12T01:19:01.966Z,53.70
2018-08-12T01:21:30.214Z,53.75
2018-08-12T01:23:58.462Z,53.43
2018-08-12T01:26:26.650Z,53.21
2018-08-12T01:28:54.834Z,53.15
2018-08-12T01:31:23.225Z,53.31
2018-08-12T01:33:51.420Z,53.37
2018-08-12T01:36:19.645Z,52.97
2018-08-12T01:38:47.837Z,52.78
2018-08-12T01:41:16.026Z,53.14
2018-08-12T01:43:44.262Z,53.42
2018-08-12T01:46:12.448Z,53.50
2018-08-12T01:48:40.666Z,53.63
2018-08-12T01:51:08.865Z,53.86
2018-08-12T01:53:37.310Z,53.45
2018-08-12T01:56:05.573Z,53.49
2018-08-12T01:58:33.769Z,52.76
2018-08-12T02:01:01.960Z,53.21
2018-08-12T02:03:30.145Z,53.12
2018-08-12T02:05:58.322Z,53.35
2018-08-12T02:08:26.522Z,53.31
2018-08-12T02:10:54.761Z,53.21
2018-08-12T02:13:22.961Z,53.11
2018-08-12T02:15:51.185Z,53.28
2018-08-12T02:18:19.418Z,53.29
2018-08-12T02:20:47.621Z,53.48
2018-08-12T02:23:15.826Z,53.60
2018-08-12T02:25:44.034Z,53.69
2018-08-12T02:28:12.237Z,53.82
2018-08-12T02:30:40.412Z,53.79
2018-08-12T02:33:08.622Z,53.45
2018-08-12T02:35:36.813Z,53.14
2018-08-12T02:38:04.997Z,53.38
2018-08-12T02:40:33.211Z,53.64
2018-08-12T02:43:01.401Z,53.93
2018-08-12T02:45:29.631Z,53.96
2018-08-12T02:47:57.849Z,54.14
2018-08-12T02:50:26.049Z,54.27
2018-08-12T02:52:54.277Z,54.00
2018-08-12T02:55:22.478Z,53.94
2018-08-12T02:57:50.650Z,53.55
2018-08-12T03:00:18.871Z,53.77
2018-08-12T03:02:47.090Z,53.83
2018-08-12T03:05:15.295Z,53.66
2018-08-12T03:07:43.496Z,54.16
2018-08-12T03:10:11.718Z,53.94
2018-08-12T03:12:39.956Z,53.61
2018-08-12T03:15:09.221Z,53.86
2018-08-12T03:17:37.731Z,53.84
2018-08-12T03:20:07.510Z,54.01
2018-08-12T03:22:36.065Z,54.15
2018-08-12T03:25:04.879Z,54.02
2018-08-12T03:27:33.110Z,53.40
2018-08-12T03:30:01.887Z,53.75
2018-08-12T03:32:29.962Z,54.03
2018-08-12T03:34:58.164Z,54.59
2018-08-12T03:37:26.339Z,54.81
2018-08-12T03:39:54.498Z,54.07
2018-08-12T03:42:22.733Z,54.16
2018-08-12T03:44:50.911Z,54.49
2018-08-12T03:47:19.082Z,54.64
2018-08-12T03:49:47.294Z,54.75
2018-08-12T03:52:15.498Z,54.57
2018-08-12T03:54:43.687Z,54.51
2018-08-12T03:57:11.936Z,54.27
2018-08-12T03:59:40.106Z,54.39
2018-08-12T04:02:08.328Z,54.25
2018-08-12T04:04:36.533Z,54.18
2018-08-12T04:07:05.138Z,54.22
2018-08-12T04:09:33.338Z,54.05
2018-08-12T04:12:01.557Z,54.15
2018-08-12T04:14:29.758Z,54.37
2018-08-12T04:16:59.750Z,53.79
2018-08-12T04:19:29.018Z,53.89
2018-08-12T04:21:57.222Z,53.89
2018-08-12T04:24:26.124Z,53.85
2018-08-12T04:26:54.298Z,53.63
2018-08-12T04:29:22.802Z,53.40
2018-08-12T04:31:50.972Z,53.29
2018-08-12T04:34:19.177Z,53.62
2018-08-12T04:36:47.385Z,53.50
2018-08-12T04:39:15.633Z,53.93
2018-08-12T04:41:44.439Z,53.29
2018-08-12T04:44:12.944Z,53.40
2018-08-12T04:46:41.163Z,53.41
2018-08-12T04:49:10.183Z,53.32
2018-08-12T04:51:38.691Z,52.89
2018-08-12T04:54:07.406Z,52.97
2018-08-12T04:56:35.680Z,53.31
2018-08-12T04:59:04.165Z,52.80
2018-08-12T05:01:32.362Z,53.26
2018-08-12T05:04:00.604Z,53.40
2018-08-12T05:06:28.785Z,53.24
2018-08-12T05:08:57.010Z,53.00
2018-08-12T05:11:25.219Z,52.87
2018-08-12T05:13:53.489Z,53.35
2018-08-12T05:16:21.726Z,53.36
2018-08-12T05:18:49.973Z,53.69
2018-08-12T05:21:18.207Z,53.60
2018-08-12T05:23:46.394Z,53.89
2018-08-12T05:26:14.595Z,54.08
2018-08-12T05:28:42.747Z,53.91
2018-08-12T05:31:11.055Z,53.54
2018-08-12T05:33:39.222Z,53.00
2018-08-12T05:36:07.437Z,52.41
2018-08-12T05:38:35.611Z,52.75
2018-08-12T05:41:03.834Z,52.29
2018-08-12T05:43:32.024Z,52.45
2018-08-12T05:46:00.290Z,52.49
2018-08-12T05:48:28.498Z,52.55
2018-08-12T05:50:56.733Z,52.84
2018-08-12T05:53:24.944Z,52.83
2018-08-12T05:55:53.107Z,52.15
2018-08-12T05:58:21.333Z,51.07
2018-08-12T06:00:49.547Z,50.78
2018-08-12T06:03:17.770Z,50.84
2018-08-12T06:05:45.959Z,50.32
2018-08-12T06:08:14.167Z,50.05
2018-08-12T06:10:42.400Z,49.89
2018-08-12T06:13:10.538Z,50.06
2018-08-12T06:15:38.775Z,49.92
2018-08-12T06:18:06.964Z,50.18
2018-08-12T06:20:35.200Z,49.86
2018-08-12T06:23:03.390Z,49.96
2018-08-12T06:25:31.605Z,50.05
2018-08-12T06:27:59.791Z,49.86
2018-08-12T06:30:28.002Z,49.49
2018-08-12T06:32:56.188Z,48.98
2018-08-12T06:35:24.401Z,49.07
2018-08-12T06:37:52.642Z,49.25
2018-08-12T06:40:20.883Z,49.63
2018-08-12T06:42:49.079Z,48.32
2018-08-12T06:45:18.165Z,49.56
2018-08-12T06:47:47.367Z,49.57
2018-08-12T06:50:15.621Z,49.24
2018-08-12T06:52:43.820Z,48.74
2018-08-12T06:55:13.121Z,48.88
2018-08-12T06:57:42.326Z,47.22
2018-08-12T07:00:13.237Z,48.33
2018-08-12T07:02:41.574Z,48.01
2018-08-12T07:05:10.628Z,46.63
2018-08-12T07:07:39.000Z,46.75
2018-08-12T07:10:08.923Z,46.94
2018-08-12T07:12:37.187Z,46.43
2018-08-12T07:15:07.591Z,46.26
2018-08-12T07:17:35.795Z,46.14
2018-08-12T07:20:04.849Z,45.30
2018-08-12T07:22:33.078Z,45.70
2018-08-12T07:25:01.281Z,45.68
2018-08-12T07:27:29.533Z,45.98
2018-08-12T07:29:57.794Z,46.94
2018-08-12T07:32:25.971Z,45.79
2018-08-12T07:34:54.184Z,45.02
2018-08-12T07:37:22.368Z,43.62
2018-08-12T07:39:50.614Z,43.76
2018-08-12T07:42:18.804Z,43.23
2018-08-12T07:44:47.070Z,43.53
2018-08-12T07:47:15.254Z,43.13
2018-08-12T07:49:43.489Z,44.58
2018-08-12T07:52:11.714Z,44.58
2018-08-12T07:54:39.899Z,43.58
2018-08-12T07:57:08.082Z,43.30
2018-08-12T07:59:36.343Z,42.98
2018-08-12T08:02:04.669Z,42.37
2018-08-12T08:04:32.911Z,41.64
2018-08-12T08:07:01.138Z,41.64
2018-08-12T08:09:29.319Z,42.25
2018-08-12T08:11:57.534Z,42.01
2018-08-12T08:14:25.770Z,42.01
2018-08-12T08:16:53.971Z,42.53
2018-08-12T08:19:22.183Z,41.25
2018-08-12T08:21:50.437Z,41.78
2018-08-12T08:24:18.602Z,41.16
2018-08-12T08:26:46.867Z,39.90
2018-08-12T08:29:15.054Z,40.06
2018-08-12T08:31:43.425Z,40.64
2018-08-12T08:34:11.483Z,39.62
2018-08-12T08:36:39.734Z,39.07
2018-08-12T08:39:10.183Z,39.46
2018-08-12T08:41:38.398Z,39.02
2018-08-12T08:44:06.718Z,38.50
2018-08-12T08:46:35.133Z,38.23
2018-08-12T08:49:03.551Z,38.75
2018-08-12T08:51:31.934Z,38.50
2018-08-12T08:54:00.566Z,38.27
2018-08-12T08:56:28.798Z,37.52
2018-08-12T08:58:57.078Z,37.58
2018-08-12T09:01:25.363Z,38.31
2018-08-12T09:03:53.689Z,37.06
2018-08-12T09:06:21.998Z,38.12
2018-08-12T09:08:50.516Z,36.13
2018-08-12T09:11:18.566Z,36.29
2018-08-12T09:13:46.869Z,35.76
2018-08-12T09:16:15.078Z,34.64
2018-08-12T09:18:43.326Z,36.01
2018-08-12T09:21:11.828Z,33.99
2018-08-12T09:23:40.115Z,34.81
2018-08-12T09:26:08.423Z,34.88
2018-08-12T09:28:36.724Z,33.89
2018-08-12T09:31:04.998Z,32.73
2018-08-12T09:33:33.226Z,32.36
2018-08-12T09:36:01.449Z,32.84
2018-08-12T09:38:29.763Z,32.59
2018-08-12T09:40:58.038Z,31.32
2018-08-12T09:43:26.282Z,31.50
2018-08-12T09:45:54.603Z,30.61
2018-08-12T09:48:22.842Z,31.30
2018-08-12T09:50:51.070Z,31.32
2018-08-12T09:53:19.345Z,30.42
2018-08-12T09:55:47.542Z,31.01
2018-08-12T09:58:15.788Z,29.01
2018-08-12T10:00:43.991Z,31.40
2018-08-12T10:03:12.242Z,29.88
2018-08-12T10:05:40.495Z,29.02
2018-08-12T10:08:08.902Z,29.04
2018-08-12T10:10:37.151Z,28.87
2018-08-12T10:13:05.510Z,28.75
2018-08-12T10:15:33.812Z,28.16
2018-08-12T10:18:03.474Z,27.58
2018-08-12T10:20:31.662Z,26.60
2018-08-12T10:22:59.850Z,27.55
2018-08-12T10:25:28.036Z,27.40
2018-08-12T10:27:56.217Z,27.62
2018-08-12T10:30:24.438Z,26.84
2018-08-12T10:32:52.599Z,25.22
2018-08-12T10:35:20.782Z,25.56
2018-08-12T10:37:48.984Z,25.66
2018-08-12T10:40:20.326Z,25.83
2018-08-12T10:42:49.207Z,24.68
2018-08-12T10:45:17.494Z,24.80
2018-08-12T10:47:46.176Z,25.64
2018-08-12T10:50:16.586Z,25.18
2018-08-12T10:52:45.690Z,24.41
2018-08-12T10:55:15.210Z,25.01
2018-08-12T10:57:43.386Z,24.39
2018-08-12T11:00:14.931Z,23.32
2018-08-12T11:02:43.534Z,24.63
2018-08-12T11:05:11.855Z,24.64
2018-08-12T11:07:40.075Z,23.84
2018-08-12T11:10:09.271Z,23.82
2018-08-12T11:12:37.504Z,23.98
2018-08-12T11:15:06.218Z,25.17
2018-08-12T11:17:34.510Z,23.17
2018-08-12T11:20:02.812Z,23.89
2018-08-12T11:22:31.072Z,24.02
2018-08-12T11:24:59.414Z,23.84
2018-08-12T11:27:27.755Z,23.86
2018-08-12T11:29:56.032Z,23.36
2018-08-12T11:32:25.081Z,23.57
2018-08-12T11:34:53.341Z,24.20
2018-08-12T11:37:21.558Z,23.17
2018-08-12T11:39:49.806Z,24.20
2018-08-12T11:42:18.097Z,24.07
2018-08-12T11:44:46.326Z,23.43
2018-08-12T11:47:14.617Z,24.47
2018-08-12T11:49:42.945Z,24.30
2018-08-12T11:52:11.222Z,22.97
2018-08-12T11:54:39.462Z,24.22
2018-08-12T11:57:07.701Z,24.07
2018-08-12T11:59:35.886Z,23.96
2018-08-12T12:02:04.323Z,23.48
2018-08-12T12:04:32.485Z,24.92
2018-08-12T12:07:00.772Z,25.41
2018-08-12T12:09:29.049Z,24.05
2018-08-12T12:11:57.322Z,23.55
2018-08-12T12:14:25.574Z,23.73
2018-08-12T12:16:53.831Z,22.94
2018-08-12T12:19:22.068Z,23.57
2018-08-12T12:21:50.275Z,23.34
2018-08-12T12:24:18.623Z,23.00
2018-08-12T12:26:46.799Z,23.46
2018-08-12T12:29:15.055Z,23.63
2018-08-12T12:31:43.299Z,23.43
2018-08-12T12:34:11.530Z,23.53
2018-08-12T12:36:39.787Z,23.64
2018-08-12T12:39:09.922Z,23.95
2018-08-12T12:41:38.250Z,25.01
2018-08-12T12:44:06.966Z,23.70
2018-08-12T12:46:35.534Z,23.14
2018-08-12T12:49:03.910Z,24.09
2018-08-12T12:51:32.306Z,24.51
2018-08-12T12:54:00.602Z,23.87
2018-08-12T12:56:28.959Z,23.55
2018-08-12T12:58:57.086Z,23.91
2018-08-12T13:01:25.370Z,23.03
2018-08-12T13:03:53.626Z,23.15
2018-08-12T13:06:21.910Z,23.52
2018-08-12T13:08:50.128Z,23.19
2018-08-12T13:11:18.438Z,23.44
2018-08-12T13:13:46.708Z,24.42
2018-08-12T13:16:15.047Z,23.44
2018-08-12T13:18:43.311Z,24.62
2018-08-12T13:21:11.512Z,23.20
2018-08-12T13:23:39.797Z,24.18
2018-08-12T13:26:08.107Z,23.32
2018-08-12T13:28:36.398Z,24.09
2018-08-12T13:31:04.723Z,23.70
2018-08-12T13:33:32.961Z,23.22
2018-08-12T13:36:01.316Z,24.48
2018-08-12T13:38:29.604Z,23.95
2018-08-12T13:40:57.854Z,23.32
2018-08-12T13:43:26.084Z,24.65
2018-08-12T13:45:54.349Z,23.62
2018-08-12T13:48:22.603Z,23.09
2018-08-12T13:50:50.971Z,23.19
2018-08-12T13:53:19.204Z,23.49
2018-08-12T13:55:47.447Z,24.36
2018-08-12T13:58:15.687Z,24.41
2018-08-12T14:00:43.973Z,23.92
2018-08-12T14:03:12.272Z,24.20
2018-08-12T14:05:40.550Z,24.99
2018-08-12T14:08:08.802Z,24.40
2018-08-12T14:10:36.977Z,23.71
2018-08-12T14:13:05.273Z,24.42
2018-08-12T14:15:33.449Z,23.98
2018-08-12T14:18:01.675Z,24.01
2018-08-12T14:20:29.850Z,24.58
2018-08-12T14:22:58.040Z,23.81
2018-08-12T14:25:26.237Z,23.58
2018-08-12T14:27:54.493Z,23.47
2018-08-12T14:30:23.276Z,24.62
2018-08-12T14:32:51.641Z,25.01
2018-08-12T14:35:19.980Z,25.83
2018-08-12T14:37:48.246Z,24.12
2018-08-12T14:40:16.702Z,24.19
2018-08-12T14:42:45.221Z,23.89
2018-08-12T14:45:14.465Z,24.24
2018-08-12T14:47:43.026Z,24.17
2018-08-12T14:50:13.031Z,24.52
2018-08-12T14:52:41.463Z,24.60
2018-08-12T14:55:10.489Z,24.85
2018-08-12T14:57:39.052Z,24.47
2018-08-12T15:00:09.678Z,26.43
2018-08-12T15:02:37.950Z,25.13
2018-08-12T15:05:06.269Z,25.87
2018-08-12T15:07:34.578Z,27.00
2018-08-12T15:10:02.810Z,24.54
2018-08-12T15:12:31.130Z,26.05
2018-08-12T15:14:59.387Z,25.66
2018-08-12T15:17:27.794Z,25.34
2018-08-12T15:19:56.164Z,25.66
2018-08-12T15:22:24.542Z,26.13
2018-08-12T15:24:52.758Z,25.44
2018-08-12T15:27:21.091Z,25.56
2018-08-12T15:29:49.350Z,25.86
2018-08-12T15:32:17.598Z,25.70
2018-08-12T15:34:45.861Z,25.66
2018-08-12T15:37:14.106Z,25.77
2018-08-12T15:39:42.323Z,27.10
2018-08-12T15:42:10.691Z,28.25
2018-08-12T15:44:38.928Z,28.61
2018-08-12T15:47:07.239Z,26.98
2018-08-12T15:49:35.530Z,27.16
2018-08-12T15:52:03.940Z,29.07
2018-08-12T15:54:32.262Z,28.64
2018-08-12T15:57:00.555Z,27.64
2018-08-12T15:59:28.747Z,26.64
2018-08-12T16:01:57.041Z,27.29
2018-08-12T16:04:25.287Z,27.85
2018-08-12T16:06:53.541Z,29.27
2018-08-12T16:09:21.820Z,28.00
2018-08-12T16:11:50.055Z,29.39
2018-08-12T16:14:18.287Z,30.01
2018-08-12T16:16:46.550Z,29.76
2018-08-12T16:19:14.770Z,30.46
2018-08-12T16:21:43.170Z,30.70
2018-08-12T16:24:11.430Z,28.62
2018-08-12T16:26:39.616Z,28.65
2018-08-12T16:29:07.815Z,28.84
2018-08-12T16:31:36.074Z,27.65
2018-08-12T16:34:04.308Z,29.10
2018-08-12T16:36:32.522Z,29.86
2018-08-12T16:39:00.735Z,28.90
2018-08-12T16:41:29.003Z,27.25
2018-08-12T16:43:57.268Z,28.07
2018-08-12T16:46:25.491Z,28.54
2018-08-12T16:48:53.710Z,28.44
2018-08-12T16:51:21.922Z,29.57
2018-08-12T16:53:50.175Z,28.05
2018-08-12T16:56:18.419Z,28.23
2018-08-12T16:58:46.678Z,27.68
2018-08-12T17:01:14.919Z,28.77
2018-08-12T17:03:43.204Z,27.95
2018-08-12T17:06:11.517Z,28.75
2018-08-12T17:08:39.726Z,28.30
2018-08-12T17:11:08.012Z,27.68
2018-08-12T17:13:36.307Z,28.56
2018-08-12T17:16:04.581Z,28.51
2018-08-12T17:18:32.854Z,29.07
2018-08-12T17:21:01.108Z,29.01
2018-08-12T17:23:29.326Z,30.15
2018-08-12T17:25:57.593Z,29.07
2018-08-12T17:28:25.862Z,29.85
2018-08-12T17:30:54.096Z,29.54
2018-08-12T17:33:22.357Z,28.72
2018-08-12T17:35:50.634Z,28.75
2018-08-12T17:38:18.906Z,29.11
2018-08-12T17:40:47.127Z,29.42
2018-08-12T17:43:15.406Z,30.02
2018-08-12T17:45:43.657Z,30.83
2018-08-12T17:48:12.032Z,30.83
2018-08-12T17:50:40.355Z,30.63
2018-08-12T17:53:08.582Z,30.86
2018-08-12T17:55:36.815Z,31.03
2018-08-12T17:58:05.107Z,31.47
2018-08-12T18:00:33.403Z,31.63
2018-08-12T18:03:01.755Z,31.90
2018-08-12T18:05:29.999Z,31.75
2018-08-12T18:07:58.288Z,32.12
2018-08-12T18:10:26.535Z,30.50
2018-08-12T18:12:54.821Z,31.22
2018-08-12T18:15:23.124Z,31.10
2018-08-12T18:17:51.676Z,31.80
2018-08-12T18:20:19.994Z,31.50
2018-08-12T18:22:48.286Z,31.60
2018-08-12T18:25:16.502Z,31.73
2018-08-12T18:27:44.767Z,32.49
2018-08-12T18:30:13.970Z,33.30
2018-08-12T18:32:42.213Z,33.23
2018-08-12T18:35:11.142Z,33.24
2018-08-12T18:37:39.494Z,33.05
2018-08-12T18:40:08.821Z,33.03
2018-08-12T18:42:37.014Z,33.23
2018-08-12T18:45:05.464Z,34.00
2018-08-12T18:47:33.667Z,33.83
2018-08-12T18:50:02.238Z,34.04
2018-08-12T18:52:30.467Z,34.30
2018-08-12T18:54:58.706Z,34.56
2018-08-12T18:57:26.883Z,34.31
2018-08-12T18:59:55.091Z,34.54
2018-08-12T19:02:23.305Z,34.86
2018-08-12T19:04:51.494Z,35.27
2018-08-12T19:07:19.693Z,35.44
2018-08-12T19:09:47.941Z,35.63
2018-08-12T19:12:16.103Z,35.34
2018-08-12T19:14:44.351Z,35.32
2018-08-12T19:17:12.566Z,35.94
2018-08-12T19:19:40.762Z,36.08
2018-08-12T19:22:08.954Z,36.66
2018-08-12T19:24:37.142Z,36.60
2018-08-12T19:27:05.302Z,36.09
2018-08-12T19:29:33.498Z,35.38
2018-08-12T19:32:01.682Z,35.81
2018-08-12T19:34:29.895Z,36.78
2018-08-12T19:36:58.078Z,36.48
2018-08-12T19:39:26.250Z,36.75
2018-08-12T19:41:54.430Z,36.43
2018-08-12T19:44:22.638Z,36.80
2018-08-12T19:46:50.847Z,36.62
2018-08-12T19:49:18.994Z,36.17
2018-08-12T19:51:47.166Z,36.53
2018-08-12T19:54:15.363Z,36.68
2018-08-12T19:56:43.550Z,37.02
2018-08-12T19:59:11.755Z,36.21
2018-08-12T20:01:39.915Z,37.15
2018-08-12T20:04:08.122Z,37.88
2018-08-12T20:06:36.285Z,37.33
2018-08-12T20:09:07.907Z,37.31
2018-08-12T20:11:36.080Z,37.96
2018-08-12T20:14:04.270Z,37.06
2018-08-12T20:16:32.439Z,37.57
2018-08-12T20:19:00.651Z,37.33
2018-08-12T20:21:28.853Z,37.62
2018-08-12T20:23:57.059Z,37.96
2018-08-12T20:26:25.244Z,37.72
2018-08-12T20:28:53.427Z,37.52
2018-08-12T20:31:21.616Z,37.05
2018-08-12T20:33:49.786Z,37.36
2018-08-12T20:36:18.085Z,36.64
2018-08-12T20:38:46.271Z,36.38
2018-08-12T20:41:14.432Z,36.61
2018-08-12T20:43:42.607Z,37.17
2018-08-12T20:46:10.786Z,36.41
2018-08-12T20:48:38.938Z,36.75
2018-08-12T20:51:07.102Z,37.09
2018-08-12T20:53:35.307Z,37.10
2018-08-12T20:56:03.510Z,36.95
2018-08-12T20:58:31.703Z,37.26
2018-08-12T21:00:59.886Z,37.09
2018-08-12T21:03:28.066Z,37.57
2018-08-12T21:05:56.242Z,37.47
2018-08-12T21:08:24.421Z,37.84
2018-08-12T21:10:52.634Z,37.46
2018-08-12T21:13:20.807Z,37.67
2018-08-12T21:15:48.975Z,37.81
2018-08-12T21:18:17.151Z,37.73
2018-08-12T21:20:45.315Z,37.05
2018-08-12T21:23:13.518Z,37.28
2018-08-12T21:25:41.684Z,37.42
2018-08-12T21:28:09.890Z,37.37
2018-08-12T21:30:38.112Z,37.17
2018-08-12T21:33:06.320Z,37.29
2018-08-12T21:35:34.526Z,37.71
2018-08-12T21:38:02.713Z,37.96
2018-08-12T21:40:30.921Z,37.70
2018-08-12T21:42:59.095Z,38.08
2018-08-12T21:45:27.300Z,37.24
2018-08-12T21:47:55.526Z,38.23
2018-08-12T21:50:23.670Z,38.09
2018-08-12T21:52:51.843Z,37.86
2018-08-12T21:55:20.012Z,38.21
2018-08-12T21:57:48.195Z,38.22
2018-08-12T22:00:16.410Z,38.43
2018-08-12T22:02:45.214Z,38.12
2018-08-12T22:05:13.416Z,38.45
2018-08-12T22:07:41.634Z,37.97
2018-08-12T22:10:09.857Z,38.52
2018-08-12T22:12:38.049Z,38.73
2018-08-12T22:15:06.922Z,38.50
2018-08-12T22:17:35.083Z,38.77
2018-08-12T22:20:03.599Z,38.72
2018-08-12T22:22:31.781Z,39.46
2018-08-12T22:24:59.992Z,39.34
2018-08-12T22:27:28.170Z,39.59
2018-08-12T22:29:56.638Z,39.51
2018-08-12T22:32:24.816Z,39.24
2018-08-12T22:34:53.035Z,39.85
2018-08-12T22:37:21.434Z,39.51
2018-08-12T22:39:49.652Z,39.51
2018-08-12T22:42:17.838Z,40.26
2018-08-12T22:44:46.019Z,40.12
2018-08-12T22:47:14.185Z,40.48
2018-08-12T22:49:42.381Z,40.27
2018-08-12T22:52:10.583Z,40.07
2018-08-12T22:54:38.774Z,40.30
2018-08-12T22:57:06.967Z,40.13
2018-08-12T22:59:35.165Z,40.19
2018-08-12T23:02:03.354Z,40.76
2018-08-12T23:04:31.554Z,40.47
2018-08-12T23:06:59.778Z,40.20
2018-08-12T23:09:27.932Z,40.54
2018-08-12T23:11:56.134Z,40.02
2018-08-12T23:14:24.326Z,40.36
2018-08-12T23:17:00.424Z,40.56
2018-08-12T23:19:28.895Z,40.99
2018-08-12T23:21:57.164Z,40.42
2018-08-12T23:24:25.346Z,40.60
2018-08-12T23:26:53.578Z,40.96
2018-08-12T23:29:21.750Z,41.03
2018-08-12T23:31:49.935Z,41.21
2018-08-12T23:34:18.110Z,40.72
2018-08-12T23:36:46.284Z,40.98
2018-08-12T23:39:14.478Z,40.83
2018-08-12T23:41:42.651Z,41.37
2018-08-12T23:44:10.831Z,40.87
2018-08-12T23:46:39.016Z,40.83
2018-08-12T23:49:07.207Z,41.52
2018-08-12T23:51:35.430Z,41.43
2018-08-12T23:54:03.610Z,41.69
2018-08-12T23:56:31.933Z,40.96
2018-08-12T23:59:00.130Z,41.53
